sensor_id;sensor_type;location;lat;lon;timestamp;pressure;altitude;pressure_sealevel;temperature;humidity
20825;BME280;10573;50.936;6.978;2024-03-17T00:02:16;102003.00;;;9.93;66.05
20825;BME280;10573;50.936;6.978;2024-03-17T00:04:42;101994.72;;;10.07;65.89
20825;BME280;10573;50.936;6.978;2024-03-17T00:07:07;101989.25;;;10.07;65.94
20825;BME280;10573;50.936;6.978;2024-03-17T00:09:33;101989.69;;;10.01;65.88
20825;BME280;10573;50.936;6.978;2024-03-17T00:11:58;101983.03;;;10.05;66.03
20825;BME280;10573;50.936;6.978;2024-03-17T00:14:25;101989.50;;;9.79;66.25
20825;BME280;10573;50.936;6.978;2024-03-17T00:16:53;101979.28;;;9.95;66.53
20825;BME280;10573;50.936;6.978;2024-03-17T00:19:18;101984.72;;;9.95;66.21
20825;BME280;10573;50.936;6.978;2024-03-17T00:21:44;101970.75;;;9.87;66.54
20825;BME280;10573;50.936;6.978;2024-03-17T00:24:09;101975.22;;;9.88;66.26
20825;BME280;10573;50.936;6.978;2024-03-17T00:26:35;101970.00;;;9.85;66.43
20825;BME280;10573;50.936;6.978;2024-03-17T00:29:00;101971.44;;;9.78;66.68
20825;BME280;10573;50.936;6.978;2024-03-17T00:31:27;101962.50;;;9.76;66.47
20825;BME280;10573;50.936;6.978;2024-03-17T00:33:52;101966.22;;;9.74;66.78
20825;BME280;10573;50.936;6.978;2024-03-17T00:36:18;101972.84;;;9.70;66.99
20825;BME280;10573;50.936;6.978;2024-03-17T00:38:43;101972.00;;;9.70;66.54
20825;BME280;10573;50.936;6.978;2024-03-17T00:41:09;101967.63;;;9.67;66.67
20825;BME280;10573;50.936;6.978;2024-03-17T00:43:34;101963.19;;;9.53;67.55
20825;BME280;10573;50.936;6.978;2024-03-17T00:46:00;101961.44;;;9.52;67.22
20825;BME280;10573;50.936;6.978;2024-03-17T00:48:25;101963.59;;;9.60;67.10
20825;BME280;10573;50.936;6.978;2024-03-17T00:50:57;101958.38;;;9.57;67.01
20825;BME280;10573;50.936;6.978;2024-03-17T00:53:24;101959.69;;;9.64;66.99
20825;BME280;10573;50.936;6.978;2024-03-17T00:55:56;101955.31;;;9.23;68.06
20825;BME280;10573;50.936;6.978;2024-03-17T00:58:26;101956.63;;;9.30;68.02
20825;BME280;10573;50.936;6.978;2024-03-17T01:00:51;101952.28;;;9.40;68.01
20825;BME280;10573;50.936;6.978;2024-03-17T01:03:17;101951.41;;;9.27;67.96
20825;BME280;10573;50.936;6.978;2024-03-17T01:05:42;101950.63;;;9.25;68.38
20825;BME280;10573;50.936;6.978;2024-03-17T01:08:12;101955.53;;;9.33;68.31
20825;BME280;10573;50.936;6.978;2024-03-17T01:10:39;101950.31;;;9.43;67.73
20825;BME280;10573;50.936;6.978;2024-03-17T01:13:08;101951.53;;;9.26;68.07
20825;BME280;10573;50.936;6.978;2024-03-17T01:15:40;101949.56;;;9.40;67.65
20825;BME280;10573;50.936;6.978;2024-03-17T01:18:06;101938.16;;;9.48;67.52
20825;BME280;10573;50.936;6.978;2024-03-17T01:20:33;101941.19;;;9.44;67.68
20825;BME280;10573;50.936;6.978;2024-03-17T01:22:59;101947.94;;;9.38;67.50
20825;BME280;10573;50.936;6.978;2024-03-17T01:25:25;101932.47;;;9.51;67.31
20825;BME280;10573;50.936;6.978;2024-03-17T01:27:51;101929.44;;;9.43;67.13
20825;BME280;10573;50.936;6.978;2024-03-17T01:30:17;101938.56;;;9.42;67.44
20825;BME280;10573;50.936;6.978;2024-03-17T01:32:42;101927.50;;;9.32;67.56
20825;BME280;10573;50.936;6.978;2024-03-17T01:35:08;101935.50;;;9.21;67.70
20825;BME280;10573;50.936;6.978;2024-03-17T01:37:33;101924.63;;;9.21;67.95
20825;BME280;10573;50.936;6.978;2024-03-17T01:39:59;101928.97;;;9.23;67.77
20825;BME280;10573;50.936;6.978;2024-03-17T01:42:24;101918.31;;;9.07;67.79
20825;BME280;10573;50.936;6.978;2024-03-17T01:44:50;101921.59;;;9.13;67.99
20825;BME280;10573;50.936;6.978;2024-03-17T01:47:17;101922.22;;;9.03;68.03
20825;BME280;10573;50.936;6.978;2024-03-17T01:49:45;101919.50;;;9.03;68.30
20825;BME280;10573;50.936;6.978;2024-03-17T01:52:11;101925.28;;;9.12;68.08
20825;BME280;10573;50.936;6.978;2024-03-17T01:54:37;101921.81;;;9.10;68.20
20825;BME280;10573;50.936;6.978;2024-03-17T01:57:03;101916.13;;;9.13;68.10
20825;BME280;10573;50.936;6.978;2024-03-17T01:59:29;101910.72;;;9.00;68.16
20825;BME280;10573;50.936;6.978;2024-03-17T02:01:54;101905.16;;;9.01;68.28
20825;BME280;10573;50.936;6.978;2024-03-17T02:04:19;101907.03;;;9.14;67.96
20825;BME280;10573;50.936;6.978;2024-03-17T02:06:47;101901.34;;;8.91;68.53
20825;BME280;10573;50.936;6.978;2024-03-17T02:09:12;101902.84;;;8.95;68.44
20825;BME280;10573;50.936;6.978;2024-03-17T02:11:38;101896.38;;;9.11;67.86
20825;BME280;10573;50.936;6.978;2024-03-17T02:14:03;101911.00;;;8.95;68.14
20825;BME280;10573;50.936;6.978;2024-03-17T02:16:29;101899.28;;;8.95;68.32
20825;BME280;10573;50.936;6.978;2024-03-17T02:18:55;101906.13;;;9.00;67.93
20825;BME280;10573;50.936;6.978;2024-03-17T02:21:21;101905.88;;;8.78;68.25
20825;BME280;10573;50.936;6.978;2024-03-17T02:23:53;101905.78;;;8.92;68.32
20825;BME280;10573;50.936;6.978;2024-03-17T02:26:19;101909.81;;;8.59;69.02
20825;BME280;10573;50.936;6.978;2024-03-17T02:28:46;101907.00;;;8.88;68.48
20825;BME280;10573;50.936;6.978;2024-03-17T02:31:14;101905.00;;;8.90;68.16
20825;BME280;10573;50.936;6.978;2024-03-17T02:33:41;101907.72;;;8.90;68.03
20825;BME280;10573;50.936;6.978;2024-03-17T02:36:07;101905.25;;;8.87;68.04
20825;BME280;10573;50.936;6.978;2024-03-17T02:38:33;101905.66;;;8.81;68.08
20825;BME280;10573;50.936;6.978;2024-03-17T02:41:18;101908.91;;;8.73;68.57
20825;BME280;10573;50.936;6.978;2024-03-17T02:43:44;101910.56;;;8.48;69.13
20825;BME280;10573;50.936;6.978;2024-03-17T02:46:11;101917.69;;;8.64;68.90
20825;BME280;10573;50.936;6.978;2024-03-17T02:48:42;101914.81;;;8.80;68.51
20825;BME280;10573;50.936;6.978;2024-03-17T02:51:17;101911.94;;;8.68;68.66
20825;BME280;10573;50.936;6.978;2024-03-17T02:53:45;101911.91;;;8.55;69.38
20825;BME280;10573;50.936;6.978;2024-03-17T02:56:11;101905.69;;;8.53;69.09
20825;BME280;10573;50.936;6.978;2024-03-17T02:58:38;101896.06;;;8.62;68.71
20825;BME280;10573;50.936;6.978;2024-03-17T03:01:04;101903.66;;;8.57;69.06
20825;BME280;10573;50.936;6.978;2024-03-17T03:03:30;101906.59;;;8.39;69.26
20825;BME280;10573;50.936;6.978;2024-03-17T03:05:56;101902.88;;;8.40;69.44
20825;BME280;10573;50.936;6.978;2024-03-17T03:08:26;101904.63;;;8.42;69.37
20825;BME280;10573;50.936;6.978;2024-03-17T03:10:52;101908.94;;;8.31;69.28
20825;BME280;10573;50.936;6.978;2024-03-17T03:13:17;101907.16;;;8.45;69.41
20825;BME280;10573;50.936;6.978;2024-03-17T03:15:43;101905.94;;;8.21;69.55
20825;BME280;10573;50.936;6.978;2024-03-17T03:18:09;101897.63;;;8.25;69.50
20825;BME280;10573;50.936;6.978;2024-03-17T03:20:34;101902.25;;;8.37;69.47
20825;BME280;10573;50.936;6.978;2024-03-17T03:23:01;101901.16;;;8.39;69.25
20825;BME280;10573;50.936;6.978;2024-03-17T03:25:27;101903.53;;;8.31;69.46
20825;BME280;10573;50.936;6.978;2024-03-17T03:27:53;101892.34;;;8.09;69.91
20825;BME280;10573;50.936;6.978;2024-03-17T03:30:18;101895.91;;;8.36;69.20
20825;BME280;10573;50.936;6.978;2024-03-17T03:32:46;101894.44;;;8.18;69.83
20825;BME280;10573;50.936;6.978;2024-03-17T03:35:13;101892.28;;;8.23;69.88
20825;BME280;10573;50.936;6.978;2024-03-17T03:37:39;101892.50;;;8.20;69.91
20825;BME280;10573;50.936;6.978;2024-03-17T03:40:05;101891.53;;;8.21;69.77
20825;BME280;10573;50.936;6.978;2024-03-17T03:42:50;101899.59;;;8.08;69.90
20825;BME280;10573;50.936;6.978;2024-03-17T03:45:16;101904.13;;;8.22;69.54
20825;BME280;10573;50.936;6.978;2024-03-17T03:47:42;101898.28;;;8.28;69.06
20825;BME280;10573;50.936;6.978;2024-03-17T03:50:09;101896.94;;;8.21;69.43
20825;BME280;10573;50.936;6.978;2024-03-17T03:52:35;101894.75;;;8.13;69.73
20825;BME280;10573;50.936;6.978;2024-03-17T03:55:01;101891.56;;;7.92;70.24
20825;BME280;10573;50.936;6.978;2024-03-17T03:57:27;101886.91;;;8.09;69.68
20825;BME280;10573;50.936;6.978;2024-03-17T03:59:55;101889.44;;;7.97;70.02
20825;BME280;10573;50.936;6.978;2024-03-17T04:02:21;101886.00;;;7.81;70.72
20825;BME280;10573;50.936;6.978;2024-03-17T04:04:46;101888.38;;;7.85;70.05
20825;BME280;10573;50.936;6.978;2024-03-17T04:07:13;101894.00;;;7.97;70.09
20825;BME280;10573;50.936;6.978;2024-03-17T04:09:38;101896.81;;;7.95;70.40
20825;BME280;10573;50.936;6.978;2024-03-17T04:12:04;101887.63;;;7.98;70.42
20825;BME280;10573;50.936;6.978;2024-03-17T04:14:29;101889.19;;;7.87;70.21
20825;BME280;10573;50.936;6.978;2024-03-17T04:16:56;101887.56;;;8.12;69.60
20825;BME280;10573;50.936;6.978;2024-03-17T04:19:22;101885.44;;;8.03;69.47
20825;BME280;10573;50.936;6.978;2024-03-17T04:21:47;101875.28;;;7.92;69.54
20825;BME280;10573;50.936;6.978;2024-03-17T04:24:13;101882.13;;;8.12;69.24
20825;BME280;10573;50.936;6.978;2024-03-17T04:26:38;101873.03;;;8.13;68.92
20825;BME280;10573;50.936;6.978;2024-03-17T04:29:03;101873.03;;;8.13;68.90
20825;BME280;10573;50.936;6.978;2024-03-17T04:31:31;101874.63;;;8.30;68.56
20825;BME280;10573;50.936;6.978;2024-03-17T04:33:56;101869.28;;;8.01;68.98
20825;BME280;10573;50.936;6.978;2024-03-17T04:36:22;101874.31;;;8.07;68.70
20825;BME280;10573;50.936;6.978;2024-03-17T04:38:47;101862.22;;;8.26;68.56
20825;BME280;10573;50.936;6.978;2024-03-17T04:41:17;101865.00;;;8.12;68.72
20825;BME280;10573;50.936;6.978;2024-03-17T04:43:42;101857.78;;;7.98;69.16
20825;BME280;10573;50.936;6.978;2024-03-17T04:46:08;101860.53;;;8.11;68.57
20825;BME280;10573;50.936;6.978;2024-03-17T04:48:37;101857.06;;;8.09;68.69
20825;BME280;10573;50.936;6.978;2024-03-17T04:51:02;101848.84;;;8.23;68.12
20825;BME280;10573;50.936;6.978;2024-03-17T04:53:28;101845.94;;;8.26;68.17
20825;BME280;10573;50.936;6.978;2024-03-17T04:56:04;101853.09;;;8.27;67.89
20825;BME280;10573;50.936;6.978;2024-03-17T04:58:34;101858.16;;;8.19;68.02
20825;BME280;10573;50.936;6.978;2024-03-17T05:01:06;101865.50;;;8.31;67.73
20825;BME280;10573;50.936;6.978;2024-03-17T05:03:35;101855.88;;;8.13;67.89
20825;BME280;10573;50.936;6.978;2024-03-17T05:06:02;101852.38;;;8.11;67.86
20825;BME280;10573;50.936;6.978;2024-03-17T05:08:28;101849.38;;;8.15;68.01
20825;BME280;10573;50.936;6.978;2024-03-17T05:10:59;101840.56;;;8.12;67.78
20825;BME280;10573;50.936;6.978;2024-03-17T05:13:27;101843.34;;;8.25;67.45
20825;BME280;10573;50.936;6.978;2024-03-17T05:15:53;101840.06;;;8.19;67.24
20825;BME280;10573;50.936;6.978;2024-03-17T05:18:19;101844.06;;;8.14;67.40
20825;BME280;10573;50.936;6.978;2024-03-17T05:20:46;101841.34;;;8.14;67.54
20825;BME280;10573;50.936;6.978;2024-03-17T05:23:12;101838.09;;;8.21;67.23
20825;BME280;10573;50.936;6.978;2024-03-17T05:25:39;101840.16;;;8.18;67.17
20825;BME280;10573;50.936;6.978;2024-03-17T05:28:04;101847.56;;;8.01;67.34
20825;BME280;10573;50.936;6.978;2024-03-17T05:30:30;101847.63;;;8.14;67.42
20825;BME280;10573;50.936;6.978;2024-03-17T05:32:56;101859.22;;;8.16;67.57
20825;BME280;10573;50.936;6.978;2024-03-17T05:35:21;101853.91;;;8.15;67.19
20825;BME280;10573;50.936;6.978;2024-03-17T05:37:48;101850.28;;;8.01;67.35
20825;BME280;10573;50.936;6.978;2024-03-17T05:40:14;101844.56;;;8.06;67.27
20825;BME280;10573;50.936;6.978;2024-03-17T05:42:43;101846.94;;;8.11;67.17
20825;BME280;10573;50.936;6.978;2024-03-17T05:45:09;101851.44;;;7.97;67.50
20825;BME280;10573;50.936;6.978;2024-03-17T05:47:37;101847.97;;;7.95;67.46
20825;BME280;10573;50.936;6.978;2024-03-17T05:50:04;101849.31;;;8.02;67.44
20825;BME280;10573;50.936;6.978;2024-03-17T05:52:29;101850.63;;;7.82;67.45
20825;BME280;10573;50.936;6.978;2024-03-17T05:54:55;101858.53;;;7.85;67.42
20825;BME280;10573;50.936;6.978;2024-03-17T05:57:21;101860.72;;;8.07;67.10
20825;BME280;10573;50.936;6.978;2024-03-17T05:59:48;101852.63;;;7.93;67.25
20825;BME280;10573;50.936;6.978;2024-03-17T06:02:13;101861.66;;;7.94;67.17
20825;BME280;10573;50.936;6.978;2024-03-17T06:04:40;101855.91;;;7.98;67.04
20825;BME280;10573;50.936;6.978;2024-03-17T06:07:05;101855.34;;;7.93;67.06
20825;BME280;10573;50.936;6.978;2024-03-17T06:09:31;101855.59;;;8.03;66.88
20825;BME280;10573;50.936;6.978;2024-03-17T06:11:57;101856.22;;;7.94;67.37
20825;BME280;10573;50.936;6.978;2024-03-17T06:14:22;101845.19;;;8.10;66.52
20825;BME280;10573;50.936;6.978;2024-03-17T06:16:48;101856.47;;;8.03;66.61
20825;BME280;10573;50.936;6.978;2024-03-17T06:19:13;101850.81;;;7.94;67.11
20825;BME280;10573;50.936;6.978;2024-03-17T06:21:39;101849.09;;;8.05;67.06
20825;BME280;10573;50.936;6.978;2024-03-17T06:24:05;101842.13;;;8.01;66.97
20825;BME280;10573;50.936;6.978;2024-03-17T06:26:32;101845.63;;;8.03;67.16
20825;BME280;10573;50.936;6.978;2024-03-17T06:29:02;101834.78;;;8.03;66.57
20825;BME280;10573;50.936;6.978;2024-03-17T06:31:27;101839.03;;;8.07;67.00
20825;BME280;10573;50.936;6.978;2024-03-17T06:33:52;101822.69;;;8.22;66.20
20825;BME280;10573;50.936;6.978;2024-03-17T06:36:18;101826.59;;;8.18;66.42
20825;BME280;10573;50.936;6.978;2024-03-17T06:38:43;101821.00;;;8.06;66.82
20825;BME280;10573;50.936;6.978;2024-03-17T06:41:12;101817.25;;;8.22;66.24
20825;BME280;10573;50.936;6.978;2024-03-17T06:43:40;101820.50;;;8.27;66.13
20825;BME280;10573;50.936;6.978;2024-03-17T06:46:08;101812.47;;;8.26;66.16
20825;BME280;10573;50.936;6.978;2024-03-17T06:48:33;101820.19;;;8.46;66.06
20825;BME280;10573;50.936;6.978;2024-03-17T06:50:59;101821.72;;;8.63;65.03
20825;BME280;10573;50.936;6.978;2024-03-17T06:53:25;101808.72;;;8.81;64.62
20825;BME280;10573;50.936;6.978;2024-03-17T06:55:58;101803.94;;;8.98;64.06
20825;BME280;10573;50.936;6.978;2024-03-17T06:58:25;101805.47;;;8.89;64.00
20825;BME280;10573;50.936;6.978;2024-03-17T07:00:56;101807.63;;;8.84;64.14
20825;BME280;10573;50.936;6.978;2024-03-17T07:03:29;101809.25;;;8.99;64.36
20825;BME280;10573;50.936;6.978;2024-03-17T07:05:55;101802.63;;;9.03;63.77
20825;BME280;10573;50.936;6.978;2024-03-17T07:08:22;101803.47;;;9.17;63.98
20825;BME280;10573;50.936;6.978;2024-03-17T07:11:01;101792.97;;;9.49;63.04
20825;BME280;10573;50.936;6.978;2024-03-17T07:13:38;101783.34;;;9.69;62.98
20825;BME280;10573;50.936;6.978;2024-03-17T07:16:07;101781.78;;;9.54;62.46
20825;BME280;10573;50.936;6.978;2024-03-17T07:18:33;101782.38;;;9.70;61.93
20825;BME280;10573;50.936;6.978;2024-03-17T07:20:59;101783.06;;;9.85;61.87
20825;BME280;10573;50.936;6.978;2024-03-17T07:23:26;101783.44;;;9.81;61.48
20825;BME280;10573;50.936;6.978;2024-03-17T07:25:55;101793.91;;;9.98;61.38
20825;BME280;10573;50.936;6.978;2024-03-17T07:28:21;101781.78;;;10.51;60.15
20825;BME280;10573;50.936;6.978;2024-03-17T07:30:52;101776.91;;;10.79;59.83
20825;BME280;10573;50.936;6.978;2024-03-17T07:33:18;101765.03;;;11.14;58.72
20825;BME280;10573;50.936;6.978;2024-03-17T07:35:53;101777.41;;;11.18;57.25
20825;BME280;10573;50.936;6.978;2024-03-17T07:38:19;101769.59;;;11.36;56.84
20825;BME280;10573;50.936;6.978;2024-03-17T07:40:54;101767.59;;;11.61;56.19
20825;BME280;10573;50.936;6.978;2024-03-17T07:43:21;101776.81;;;11.92;55.34
20825;BME280;10573;50.936;6.978;2024-03-17T07:45:46;101776.44;;;12.29;54.58
20825;BME280;10573;50.936;6.978;2024-03-17T07:48:12;101782.88;;;12.39;53.86
20825;BME280;10573;50.936;6.978;2024-03-17T07:50:37;101771.13;;;12.70;53.00
20825;BME280;10573;50.936;6.978;2024-03-17T07:53:03;101776.78;;;12.99;52.46
20825;BME280;10573;50.936;6.978;2024-03-17T07:55:28;101784.31;;;12.86;52.51
20825;BME280;10573;50.936;6.978;2024-03-17T07:57:56;101777.22;;;12.73;52.84
20825;BME280;10573;50.936;6.978;2024-03-17T08:00:21;101780.13;;;12.82;52.51
20825;BME280;10573;50.936;6.978;2024-03-17T08:02:47;101786.16;;;13.06;52.04
20825;BME280;10573;50.936;6.978;2024-03-17T08:05:13;101770.44;;;13.61;50.70
20825;BME280;10573;50.936;6.978;2024-03-17T08:07:39;101764.56;;;14.43;49.47
20825;BME280;10573;50.936;6.978;2024-03-17T08:10:05;101754.28;;;15.22;46.74
20825;BME280;10573;50.936;6.978;2024-03-17T08:12:31;101747.44;;;15.36;46.82
20825;BME280;10573;50.936;6.978;2024-03-17T08:14:56;101751.00;;;15.92;45.25
20825;BME280;10573;50.936;6.978;2024-03-17T08:17:22;101752.59;;;15.95;45.26
20825;BME280;10573;50.936;6.978;2024-03-17T08:19:47;101755.81;;;15.90;44.58
20825;BME280;10573;50.936;6.978;2024-03-17T08:22:13;101743.31;;;16.32;44.07
20825;BME280;10573;50.936;6.978;2024-03-17T08:24:39;101753.81;;;16.55;44.12
20825;BME280;10573;50.936;6.978;2024-03-17T08:27:05;101735.22;;;17.01;42.60
20825;BME280;10573;50.936;6.978;2024-03-17T08:29:31;101740.44;;;16.60;42.53
20825;BME280;10573;50.936;6.978;2024-03-17T08:31:57;101760.34;;;15.82;43.86
20825;BME280;10573;50.936;6.978;2024-03-17T08:34:22;101762.03;;;15.37;45.10
20825;BME280;10573;50.936;6.978;2024-03-17T08:36:47;101770.75;;;14.85;46.45
20825;BME280;10573;50.936;6.978;2024-03-17T08:39:13;101774.81;;;14.51;47.76
20825;BME280;10573;50.936;6.978;2024-03-17T08:41:38;101755.94;;;14.19;48.02
20825;BME280;10573;50.936;6.978;2024-03-17T08:44:04;101735.13;;;15.40;46.34
20825;BME280;10573;50.936;6.978;2024-03-17T08:46:34;101737.25;;;15.74;45.24
20825;BME280;10573;50.936;6.978;2024-03-17T08:49:00;101732.69;;;15.37;45.13
20825;BME280;10573;50.936;6.978;2024-03-17T08:51:25;101736.72;;;15.15;45.97
20825;BME280;10573;50.936;6.978;2024-03-17T08:53:50;101739.50;;;14.38;47.21
20825;BME280;10573;50.936;6.978;2024-03-17T08:56:17;101749.16;;;14.03;48.10
20825;BME280;10573;50.936;6.978;2024-03-17T08:58:43;101754.69;;;13.53;49.68
20825;BME280;10573;50.936;6.978;2024-03-17T09:01:09;101751.28;;;13.70;49.75
20825;BME280;10573;50.936;6.978;2024-03-17T09:03:35;101747.34;;;13.53;50.07
20825;BME280;10573;50.936;6.978;2024-03-17T09:06:00;101740.91;;;13.84;49.88
20825;BME280;10573;50.936;6.978;2024-03-17T09:08:26;101737.09;;;13.46;50.01
20825;BME280;10573;50.936;6.978;2024-03-17T09:10:53;101742.75;;;13.54;49.89
20825;BME280;10573;50.936;6.978;2024-03-17T09:13:21;101735.69;;;13.61;50.18
20825;BME280;10573;50.936;6.978;2024-03-17T09:15:59;101730.25;;;13.81;49.86
20825;BME280;10573;50.936;6.978;2024-03-17T09:18:31;101736.97;;;13.57;50.21
20825;BME280;10573;50.936;6.978;2024-03-17T09:21:04;101739.88;;;13.65;49.75
20825;BME280;10573;50.936;6.978;2024-03-17T09:23:31;101736.13;;;13.66;49.50
20825;BME280;10573;50.936;6.978;2024-03-17T09:26:06;101738.91;;;13.86;49.70
20825;BME280;10573;50.936;6.978;2024-03-17T09:28:34;101743.81;;;13.82;49.59
20825;BME280;10573;50.936;6.978;2024-03-17T09:30:59;101747.84;;;13.88;49.23
20825;BME280;10573;50.936;6.978;2024-03-17T09:33:27;101745.94;;;13.59;49.34
20825;BME280;10573;50.936;6.978;2024-03-17T09:35:57;101743.66;;;13.74;49.39
20825;BME280;10573;50.936;6.978;2024-03-17T09:38:23;101744.78;;;13.71;49.54
20825;BME280;10573;50.936;6.978;2024-03-17T09:40:49;101749.69;;;13.77;49.45
20825;BME280;10573;50.936;6.978;2024-03-17T09:43:18;101747.53;;;13.71;49.69
20825;BME280;10573;50.936;6.978;2024-03-17T09:45:43;101742.81;;;14.03;49.14
20825;BME280;10573;50.936;6.978;2024-03-17T09:48:14;101744.13;;;14.18;48.77
20825;BME280;10573;50.936;6.978;2024-03-17T09:50:40;101742.78;;;14.13;49.34
20825;BME280;10573;50.936;6.978;2024-03-17T09:53:06;101744.13;;;14.18;49.41
20825;BME280;10573;50.936;6.978;2024-03-17T09:55:32;101739.34;;;14.20;48.79
20825;BME280;10573;50.936;6.978;2024-03-17T09:57:58;101742.94;;;14.40;48.42
20825;BME280;10573;50.936;6.978;2024-03-17T10:00:24;101728.31;;;14.79;47.62
20825;BME280;10573;50.936;6.978;2024-03-17T10:02:49;101723.94;;;14.96;47.05
20825;BME280;10573;50.936;6.978;2024-03-17T10:05:19;101728.72;;;14.84;48.00
20825;BME280;10573;50.936;6.978;2024-03-17T10:07:45;101719.88;;;15.28;47.11
20825;BME280;10573;50.936;6.978;2024-03-17T10:10:12;101723.09;;;15.51;46.60
20825;BME280;10573;50.936;6.978;2024-03-17T10:12:38;101717.19;;;15.18;46.92
20825;BME280;10573;50.936;6.978;2024-03-17T10:15:03;101721.28;;;15.04;47.20
20825;BME280;10573;50.936;6.978;2024-03-17T10:17:33;101731.47;;;15.22;47.42
20825;BME280;10573;50.936;6.978;2024-03-17T10:23:04;101742.38;;;15.04;48.06
20825;BME280;10573;50.936;6.978;2024-03-17T10:25:32;101747.22;;;15.20;47.38
20825;BME280;10573;50.936;6.978;2024-03-17T10:27:59;101733.81;;;15.44;47.40
20825;BME280;10573;50.936;6.978;2024-03-17T10:30:25;101727.41;;;15.54;46.94
20825;BME280;10573;50.936;6.978;2024-03-17T10:32:56;101723.31;;;15.58;46.55
20825;BME280;10573;50.936;6.978;2024-03-17T10:35:36;101720.94;;;15.91;45.82
20825;BME280;10573;50.936;6.978;2024-03-17T10:38:05;101719.94;;;15.92;45.71
20825;BME280;10573;50.936;6.978;2024-03-17T10:40:32;101712.56;;;16.10;45.41
20825;BME280;10573;50.936;6.978;2024-03-17T10:43:04;101711.44;;;16.03;45.43
20825;BME280;10573;50.936;6.978;2024-03-17T10:45:34;101706.16;;;16.28;44.79
20825;BME280;10573;50.936;6.978;2024-03-17T10:48:07;101708.56;;;16.05;45.02
20825;BME280;10573;50.936;6.978;2024-03-17T10:50:37;101708.75;;;16.30;45.02
20825;BME280;10573;50.936;6.978;2024-03-17T10:53:05;101707.44;;;16.60;44.61
20825;BME280;10573;50.936;6.978;2024-03-17T10:55:45;101702.94;;;16.59;44.04
20825;BME280;10573;50.936;6.978;2024-03-17T10:58:38;101710.28;;;16.76;44.46
20825;BME280;10573;50.936;6.978;2024-03-17T11:01:13;101716.03;;;16.39;44.63
20825;BME280;10573;50.936;6.978;2024-03-17T11:03:39;101714.31;;;16.38;44.54
20825;BME280;10573;50.936;6.978;2024-03-17T11:06:06;101719.94;;;15.92;45.41
20825;BME280;10573;50.936;6.978;2024-03-17T11:08:34;101709.47;;;16.14;45.19
20825;BME280;10573;50.936;6.978;2024-03-17T11:11:01;101716.25;;;16.01;45.55
20825;BME280;10573;50.936;6.978;2024-03-17T11:13:28;101710.59;;;16.21;45.23
20825;BME280;10573;50.936;6.978;2024-03-17T11:15:54;101717.50;;;16.25;45.25
20825;BME280;10573;50.936;6.978;2024-03-17T11:21:02;101708.78;;;16.56;44.69
20825;BME280;10573;50.936;6.978;2024-03-17T11:23:34;101704.41;;;16.71;44.61
20825;BME280;10573;50.936;6.978;2024-03-17T11:26:00;101699.78;;;16.98;44.32
20825;BME280;10573;50.936;6.978;2024-03-17T11:31:36;101691.44;;;17.75;42.82
20825;BME280;10573;50.936;6.978;2024-03-17T11:34:04;101678.75;;;18.16;42.08
20825;BME280;10573;50.936;6.978;2024-03-17T11:36:32;101677.34;;;18.03;42.22
20825;BME280;10573;50.936;6.978;2024-03-17T11:41:47;101673.03;;;18.01;42.11
20825;BME280;10573;50.936;6.978;2024-03-17T11:49:34;101672.53;;;18.14;42.24
20825;BME280;10573;50.936;6.978;2024-03-17T11:52:13;101665.28;;;18.21;41.95
20825;BME280;10573;50.936;6.978;2024-03-17T11:54:40;101657.16;;;18.27;42.18
20825;BME280;10573;50.936;6.978;2024-03-17T11:57:10;101652.50;;;18.44;41.50
20825;BME280;10573;50.936;6.978;2024-03-17T11:59:37;101651.66;;;18.11;42.20
20825;BME280;10573;50.936;6.978;2024-03-17T12:02:10;101656.66;;;18.24;42.39
20825;BME280;10573;50.936;6.978;2024-03-17T12:04:42;101648.72;;;18.13;42.12
20825;BME280;10573;50.936;6.978;2024-03-17T12:07:12;101651.44;;;17.63;42.62
20825;BME280;10573;50.936;6.978;2024-03-17T12:09:38;101651.78;;;17.68;43.11
20825;BME280;10573;50.936;6.978;2024-03-17T12:12:09;101655.91;;;17.72;43.21
20825;BME280;10573;50.936;6.978;2024-03-17T12:14:36;101638.53;;;17.80;42.28
20825;BME280;10573;50.936;6.978;2024-03-17T12:17:04;101638.75;;;18.11;42.09
20825;BME280;10573;50.936;6.978;2024-03-17T12:19:30;101628.38;;;18.47;41.93
20825;BME280;10573;50.936;6.978;2024-03-17T12:22:00;101632.84;;;18.39;42.17
20825;BME280;10573;50.936;6.978;2024-03-17T12:24:31;101634.09;;;18.12;42.24
20825;BME280;10573;50.936;6.978;2024-03-17T12:26:57;101626.50;;;17.98;42.71
20825;BME280;10573;50.936;6.978;2024-03-17T12:29:35;101624.28;;;18.09;42.41
20825;BME280;10573;50.936;6.978;2024-03-17T12:32:16;101621.50;;;18.09;42.15
20825;BME280;10573;50.936;6.978;2024-03-17T12:34:43;101619.09;;;18.23;42.25
20825;BME280;10573;50.936;6.978;2024-03-17T12:37:16;101600.94;;;18.37;41.91
20825;BME280;10573;50.936;6.978;2024-03-17T12:39:42;101605.66;;;18.20;42.52
20825;BME280;10573;50.936;6.978;2024-03-17T12:42:09;101608.09;;;17.98;42.37
20825;BME280;10573;50.936;6.978;2024-03-17T12:44:36;101603.41;;;17.90;42.39
20825;BME280;10573;50.936;6.978;2024-03-17T12:47:04;101602.91;;;17.95;42.73
20825;BME280;10573;50.936;6.978;2024-03-17T12:49:31;101603.75;;;18.12;42.83
20825;BME280;10573;50.936;6.978;2024-03-17T12:51:57;101592.56;;;17.89;42.63
20825;BME280;10573;50.936;6.978;2024-03-17T12:54:26;101594.47;;;18.13;42.37
20825;BME280;10573;50.936;6.978;2024-03-17T12:57:06;101582.53;;;18.13;42.53
20825;BME280;10573;50.936;6.978;2024-03-17T12:59:52;101576.38;;;18.02;42.72
20825;BME280;10573;50.936;6.978;2024-03-17T13:02:43;101573.94;;;17.91;42.93
20825;BME280;10573;50.936;6.978;2024-03-17T13:07:43;101563.97;;;18.06;42.86
20825;BME280;10573;50.936;6.978;2024-03-17T13:10:10;101560.00;;;17.59;42.59
20825;BME280;10573;50.936;6.978;2024-03-17T13:12:36;101559.81;;;17.69;42.75
20825;BME280;10573;50.936;6.978;2024-03-17T13:15:01;101552.41;;;17.78;42.98
20825;BME280;10573;50.936;6.978;2024-03-17T13:17:27;101542.59;;;17.75;43.22